Lakeland, Florida
Current Conditions -  °F | °C
As of 1:50 PM on Saturday 25 Oct 2014 (Local Time) from KLAL Reporting Station
Clear Clear  
Wind Chill: 24°   Ceiling: Unl
Heat Index: 24°   Visibility: 20mi
Dew Point: 13°   Wind: 3mph
Humidity: 50%   Direction: NA
Pressure: 29.98"   Gusts: NA
Location:  28.04°N, 81.95°W
Report Text: KLAL 251750Z VRB03KT 20SM SKC 24/13 A2998
Loading
Personal Weather Stations






























Interactive Weather Map
Tropical Storm Tracking
New forecast layout! Learn more

10-Day Weather Forecast

Advertisements
Track Severe Weather on mobile